Time;durP1;ratioP1;P1;durP2;ratioP2;P2;SDS_P1;SDS_P2;PMS_P1;PMS_P2;Temp;Humidity;BMP_temperature;BMP_pressure;BME280_temperature;BME280_humidity;BME280_pressure;Samples;Min_cycle;Max_cycle;Signal;HPM_P1;HPM_P2
2024/01/01 00:00:55;;;;;;;13.98;2.55;;;;;;;15.82;44.04;99776.59;5098871;28;20032;-60
2024/01/01 00:03:21;;;;;;;6.15;2.30;;;;;;;15.86;44.52;99780.59;5096566;28;20032;-61
2024/01/01 00:05:46;;;;;;;6.13;2.00;;;;;;;15.84;44.24;99780.78;5096253;28;20089;-61
2024/01/01 00:08:12;;;;;;;10.77;1.98;;;;;;;15.86;43.68;99778.72;5096128;28;20399;-61
2024/01/01 00:10:37;;;;;;;7.03;1.60;;;;;;;15.87;44.71;99788.50;5094754;28;20035;-61
2024/01/01 00:13:03;;;;;;;7.95;1.60;;;;;;;15.87;43.92;99771.47;5094731;28;20137;-61
2024/01/01 00:15:28;;;;;;;7.40;2.50;;;;;;;15.89;43.41;99774.81;5095926;28;20465;-61
2024/01/01 00:17:53;;;;;;;10.18;1.70;;;;;;;15.90;43.89;99771.94;5076991;28;20404;-61
2024/01/01 00:20:19;;;;;;;10.38;1.50;;;;;;;15.93;43.58;99776.13;5095859;28;20080;-61
2024/01/01 00:22:44;;;;;;;11.05;1.92;;;;;;;15.91;43.81;99772.78;5095387;28;20028;-60
2024/01/01 00:25:09;;;;;;;6.03;1.50;;;;;;;15.93;44.29;99778.81;5095805;28;20032;-61
2024/01/01 00:27:35;;;;;;;5.70;1.45;;;;;;;15.92;42.94;99767.16;5077350;28;20028;-61
2024/01/01 00:30:01;;;;;;;7.97;2.38;;;;;;;15.91;44.69;99753.88;5094242;28;20451;-61
2024/01/01 00:32:26;;;;;;;15.57;2.53;;;;;;;15.92;43.53;99761.78;5077552;28;20069;-61
2024/01/01 00:34:52;;;;;;;5.65;1.35;;;;;;;15.95;43.29;99760.56;5094043;28;20032;-61
2024/01/01 00:37:17;;;;;;;7.70;1.45;;;;;;;15.94;43.70;99742.69;5094586;28;20044;-61
2024/01/01 00:39:43;;;;;;;7.15;1.75;;;;;;;15.96;43.25;99767.63;5095563;28;20074;-61
2024/01/01 00:42:08;;;;;;;3.83;1.20;;;;;;;15.95;44.11;99766.78;5093959;28;20032;-61
2024/01/01 00:44:33;;;;;;;8.80;1.63;;;;;;;15.95;44.19;99755.16;5094099;28;20039;-61
2024/01/01 00:46:59;;;;;;;5.90;1.70;;;;;;;15.97;43.29;99761.22;5095293;28;20525;-61
2024/01/01 00:49:24;;;;;;;7.25;1.33;;;;;;;15.96;43.99;99763.09;5095409;28;20086;-61
2024/01/01 00:51:50;;;;;;;6.03;1.25;;;;;;;15.95;44.28;99760.56;5085175;28;20119;-61
2024/01/01 00:54:15;;;;;;;12.05;2.13;;;;;;;15.91;43.43;99759.28;5066138;28;20063;-61
2024/01/01 00:56:41;;;;;;;11.23;1.65;;;;;;;15.93;43.69;99768.84;5049797;28;20492;-60
2024/01/01 00:59:06;;;;;;;16.30;1.40;;;;;;;15.89;44.62;99766.72;5063787;28;20111;-61
2024/01/01 01:01:32;;;;;;;7.22;1.77;;;;;;;15.85;43.87;99773.53;5062905;28;20514;-61
2024/01/01 01:03:57;;;;;;;9.65;1.40;;;;;;;15.80;44.84;99773.25;5063564;28;20121;-61
2024/01/01 01:06:23;;;;;;;6.07;1.08;;;;;;;15.69;44.74;99780.81;5063121;28;20428;-63
2024/01/01 01:08:48;;;;;;;8.45;1.40;;;;;;;15.64;44.70;99774.28;5063451;28;20055;-61
2024/01/01 01:11:14;;;;;;;5.07;1.25;;;;;;;15.57;45.50;99776.06;5061752;28;20029;-61
2024/01/01 01:13:39;;;;;;;9.50;2.15;;;;;;;15.50;45.56;99794.88;5061678;28;20504;-62
2024/01/01 01:16:04;;;;;;;9.57;1.17;;;;;;;15.42;45.33;99797.63;5047865;28;20026;-61
2024/01/01 01:18:30;;;;;;;10.00;1.77;;;;;;;15.31;45.03;99795.38;5064542;28;20032;-61
2024/01/01 01:20:55;;;;;;;7.78;1.50;;;;;;;15.18;45.29;99803.28;5048570;28;20119;-63
2024/01/01 01:23:21;;;;;;;7.00;1.50;;;;;;;15.05;45.10;99800.38;5048356;28;20506;-63
2024/01/01 01:25:46;;;;;;;9.18;1.33;;;;;;;14.94;46.68;99798.09;5075108;28;20056;-63
2024/01/01 01:28:11;;;;;;;7.93;1.23;;;;;;;14.76;45.29;99784.97;5074088;28;20032;-63
2024/01/01 01:30:37;;;;;;;4.70;1.65;;;;;;;14.65;46.15;99787.25;5056579;28;20115;-63
2024/01/01 01:33:02;;;;;;;4.88;1.55;;;;;;;14.57;46.34;99801.66;5056322;28;20496;-67
2024/01/01 01:35:28;;;;;;;4.97;1.30;;;;;;;14.49;46.00;99797.13;5077395;28;20080;-63
2024/01/01 01:37:53;;;;;;;15.70;2.17;;;;;;;14.42;47.65;99804.25;5093036;28;20024;-63
2024/01/01 01:40:19;;;;;;;7.35;1.92;;;;;;;14.34;47.00;99807.03;5076039;28;20069;-63
2024/01/01 01:42:47;;;;;;;7.65;1.30;;;;;;;14.31;47.20;99801.94;5092928;28;20579;-63
2024/01/01 01:45:15;;;;;;;7.32;1.40;;;;;;;14.25;47.47;99805.34;5087155;28;20081;-62
2024/01/01 01:47:41;;;;;;;9.18;1.35;;;;;;;14.19;46.94;99807.91;5075339;28;20503;-63
2024/01/01 01:50:07;;;;;;;7.68;1.63;;;;;;;14.19;47.99;99808.75;5093188;28;20028;-63
2024/01/01 01:52:34;;;;;;;4.43;1.30;;;;;;;14.20;48.19;99820.38;5076000;28;20384;-63
2024/01/01 01:55:00;;;;;;;8.65;1.63;;;;;;;14.18;47.40;99817.84;5092952;28;20498;-63
2024/01/01 01:57:26;;;;;;;10.75;1.42;;;;;;;14.16;47.25;99825.25;5093946;28;20024;-62
2024/01/01 01:59:52;;;;;;;4.75;1.58;;;;;;;14.11;47.04;99822.25;5092557;28;20387;-62
2024/01/01 02:02:19;;;;;;;4.63;0.88;;;;;;;14.10;47.95;99827.84;5092872;28;20026;-63
2024/01/01 02:04:45;;;;;;;5.40;1.48;;;;;;;14.08;47.94;99838.78;5092469;28;20052;-63
2024/01/01 02:07:10;;;;;;;8.07;1.83;;;;;;;14.02;48.85;99818.78;5092796;28;20498;-63
2024/01/01 02:09:37;;;;;;;12.63;1.88;;;;;;;14.00;47.60;99830.75;5092642;28;20043;-63
2024/01/01 02:12:03;;;;;;;8.13;1.88;;;;;;;13.96;47.43;99818.63;5092386;28;20445;-63
2024/01/01 02:14:29;;;;;;;4.32;1.15;;;;;;;13.91;48.32;99816.47;5093751;28;20024;-63
2024/01/01 02:16:54;;;;;;;19.98;1.88;;;;;;;13.90;48.28;99814.78;5092967;28;20123;-64
2024/01/01 02:19:24;;;;;;;9.98;1.33;;;;;;;13.94;48.35;99815.28;5092149;28;20448;-64
2024/01/01 02:21:51;;;;;;;10.55;2.10;;;;;;;13.92;48.02;99823.53;5092292;28;20036;-63
2024/01/01 02:24:16;;;;;;;6.32;2.03;;;;;;;13.89;48.27;99831.13;5092411;28;20361;-63
2024/01/01 02:26:43;;;;;;;4.93;2.05;;;;;;;13.89;48.51;99833.81;5093628;28;20050;-64
2024/01/01 02:29:09;;;;;;;10.70;1.30;;;;;;;13.86;49.19;99836.84;5092555;28;20081;-63
2024/01/01 02:31:34;;;;;;;3.10;1.15;;;;;;;13.83;49.13;99829.13;5092128;28;20031;-64
2024/01/01 02:33:59;;;;;;;11.10;1.75;;;;;;;13.80;49.18;99824.94;5092040;28;20372;-64
2024/01/01 02:36:25;;;;;;;7.85;2.15;;;;;;;13.84;49.03;99820.91;5075245;28;20127;-64
2024/01/01 02:38:50;;;;;;;10.50;1.25;;;;;;;13.87;48.51;99841.25;5091782;28;20027;-64
2024/01/01 02:41:15;;;;;;;7.70;1.95;;;;;;;13.83;48.83;99829.13;5091627;28;20392;-63
2024/01/01 02:43:41;;;;;;;11.63;2.10;;;;;;;13.85;49.73;99843.25;5091889;28;20028;-63
2024/01/01 02:46:06;;;;;;;7.25;1.58;;;;;;;13.88;48.97;99848.28;5091882;28;20035;-63
2024/01/01 02:48:34;;;;;;;10.40;1.30;;;;;;;13.88;49.23;99840.19;5091888;28;20024;-62
2024/01/01 02:50:59;;;;;;;9.25;1.67;;;;;;;13.91;49.20;99835.31;5091801;28;20059;-62
2024/01/01 02:53:24;;;;;;;10.13;1.70;;;;;;;13.93;48.69;99841.34;5091722;28;20067;-63
2024/01/01 02:55:50;;;;;;;9.68;2.22;;;;;;;13.96;49.28;99841.00;5091812;28;20043;-63
2024/01/01 02:58:15;;;;;;;7.43;1.27;;;;;;;13.98;50.36;99839.00;5091813;28;20028;-63
2024/01/01 03:00:41;;;;;;;8.18;1.30;;;;;;;13.97;49.56;99828.38;5091852;28;20473;-63
2024/01/01 03:03:06;;;;;;;5.50;1.13;;;;;;;14.01;49.86;99837.81;5091750;28;20020;-62
2024/01/01 03:05:32;;;;;;;11.13;1.17;;;;;;;14.02;50.30;99834.09;5092998;28;20036;-62
2024/01/01 03:07:57;;;;;;;12.75;1.30;;;;;;;14.06;49.63;99846.19;5093241;28;20027;-62
2024/01/01 03:10:23;;;;;;;17.67;2.50;;;;;;;14.08;50.10;99849.53;5074681;28;20487;-62
2024/01/01 03:12:49;;;;;;;6.05;1.25;;;;;;;14.10;48.96;99844.81;5090774;28;20033;-62
2024/01/01 03:15:14;;;;;;;8.88;2.30;;;;;;;14.06;49.33;99848.88;5092905;28;20537;-62
2024/01/01 03:17:41;;;;;;;8.32;1.65;;;;;;;14.08;49.88;99863.00;5091638;28;20031;-62
2024/01/01 03:20:06;;;;;;;8.20;1.77;;;;;;;14.11;49.80;99862.66;5092907;28;20036;-62
2024/01/01 03:22:32;;;;;;;15.15;2.42;;;;;;;14.10;49.29;99857.47;5093081;28;20048;-62
2024/01/01 03:24:57;;;;;;;7.60;1.75;;;;;;;14.13;49.80;99862.47;5093856;28;20107;-62
2024/01/01 03:27:23;;;;;;;5.20;1.50;;;;;;;14.14;50.15;99859.63;5074582;28;20032;-62
2024/01/01 03:29:49;;;;;;;8.65;1.88;;;;;;;14.17;49.52;99863.81;5089642;28;20028;-62
2024/01/01 03:32:14;;;;;;;14.82;1.70;;;;;;;14.17;49.47;99859.28;5074661;28;20428;-61
2024/01/01 03:34:40;;;;;;;9.63;1.63;;;;;;;14.18;49.70;99857.41;5091534;28;20558;-62
2024/01/01 03:37:06;;;;;;;5.13;1.30;;;;;;;14.21;48.86;99857.88;5074668;28;20082;-61
2024/01/01 03:39:31;;;;;;;8.80;2.78;;;;;;;14.20;50.30;99853.53;5091266;28;20032;-63
2024/01/01 03:41:57;;;;;;;10.73;1.52;;;;;;;14.27;50.23;99867.97;5091487;28;20488;-61
2024/01/01 03:44:22;;;;;;;6.40;1.30;;;;;;;14.31;48.99;99861.22;5091317;28;20492;-62
2024/01/01 03:46:47;;;;;;;8.30;1.10;;;;;;;14.33;49.20;99856.50;5092721;28;20047;-65
2024/01/01 03:49:13;;;;;;;11.05;1.90;;;;;;;14.37;50.20;99863.25;5091284;28;20036;-65
2024/01/01 03:51:38;;;;;;;9.60;1.00;;;;;;;14.40;48.89;99852.13;5090291;28;20280;-65
2024/01/01 03:54:03;;;;;;;8.32;1.70;;;;;;;14.44;49.79;99853.41;5094345;28;20029;-65
2024/01/01 03:56:29;;;;;;;7.50;1.60;;;;;;;14.48;48.55;99852.06;5077626;28;20047;-65
2024/01/01 03:58:54;;;;;;;4.88;1.70;;;;;;;14.54;48.75;99862.09;5078169;28;20111;-66
2024/01/01 04:01:21;;;;;;;11.13;1.63;;;;;;;14.60;48.08;99859.72;5096518;28;20506;-65
2024/01/01 04:03:46;;;;;;;5.40;2.50;;;;;;;14.63;49.05;99859.38;5094521;28;20035;-66
2024/01/01 04:06:12;;;;;;;7.93;1.17;;;;;;;14.65;48.42;99860.88;5096158;28;20033;-65
2024/01/01 04:08:37;;;;;;;7.43;1.90;;;;;;;14.67;49.40;99860.69;5094895;28;20036;-65
2024/01/01 04:11:03;;;;;;;10.00;1.30;;;;;;;14.69;49.42;99869.41;5094862;28;20043;-66
2024/01/01 04:13:28;;;;;;;6.43;0.98;;;;;;;14.67;48.53;99866.06;5094511;28;20458;-65
2024/01/01 04:15:53;;;;;;;10.13;2.13;;;;;;;14.71;47.77;99867.41;5095190;28;20028;-65
2024/01/01 04:18:19;;;;;;;11.73;1.33;;;;;;;14.69;49.34;99859.47;5078628;28;20063;-65
2024/01/01 04:20:44;;;;;;;9.95;1.70;;;;;;;14.71;49.21;99870.09;5095707;28;20111;-65
2024/01/01 04:23:09;;;;;;;14.70;3.22;;;;;;;14.72;48.21;99858.28;5098973;28;20020;-65
2024/01/01 04:25:35;;;;;;;10.52;1.92;;;;;;;14.75;49.09;99860.63;5098831;28;20036;-65
2024/01/01 04:28:00;;;;;;;8.27;1.40;;;;;;;14.70;47.61;99849.53;5097209;28;20103;-65
2024/01/01 04:30:25;;;;;;;5.75;1.00;;;;;;;14.78;49.02;99871.03;5095863;28;20058;-65
2024/01/01 04:32:51;;;;;;;8.57;1.42;;;;;;;14.79;47.55;99870.03;5094459;28;20077;-65
2024/01/01 04:35:16;;;;;;;8.02;1.98;;;;;;;14.82;48.12;99875.06;5095681;28;20398;-65
2024/01/01 04:37:42;;;;;;;3.65;1.23;;;;;;;14.82;48.33;99869.69;5094133;28;20470;-65
2024/01/01 04:40:07;;;;;;;8.02;1.60;;;;;;;14.84;48.53;99873.03;5094282;28;20026;-66
2024/01/01 04:42:33;;;;;;;7.85;1.75;;;;;;;14.83;48.92;99865.94;5095505;28;20028;-65
2024/01/01 04:44:58;;;;;;;8.25;1.95;;;;;;;14.84;48.10;99873.88;5095689;28;20267;-64
2024/01/01 04:47:24;;;;;;;10.50;1.45;;;;;;;14.87;47.52;99864.59;5095864;28;20466;-65
2024/01/01 04:49:49;;;;;;;12.15;1.42;;;;;;;14.84;48.04;99873.88;5094435;28;20068;-65
2024/01/01 04:52:15;;;;;;;10.40;1.45;;;;;;;14.85;48.76;99869.31;5095562;28;20035;-65
2024/01/01 04:54:41;;;;;;;6.82;1.05;;;;;;;14.86;48.36;99865.59;5077080;28;20036;-65
2024/01/01 04:57:07;;;;;;;8.30;1.27;;;;;;;14.85;47.33;99880.13;5093997;28;20024;-62
2024/01/01 04:59:32;;;;;;;8.95;2.53;;;;;;;14.82;48.25;99883.16;5094975;28;20074;-62
2024/01/01 05:01:57;;;;;;;5.97;1.30;;;;;;;14.80;47.53;99887.88;5094985;28;20129;-61
2024/01/01 05:04:23;;;;;;;11.90;2.75;;;;;;;14.81;48.16;99885.00;5093239;28;20037;-61
2024/01/01 05:06:48;;;;;;;14.15;1.65;;;;;;;14.82;48.43;99888.56;5076767;28;20522;-62
2024/01/01 05:09:13;;;;;;;8.07;1.65;;;;;;;14.83;48.47;99887.53;5093790;28;20024;-61
2024/01/01 05:11:40;;;;;;;11.68;2.40;;;;;;;14.85;48.89;99886.31;5094650;28;20040;-62
2024/01/01 05:14:06;;;;;;;7.40;1.42;;;;;;;14.86;48.25;99887.16;5093281;28;20056;-61
2024/01/01 05:16:33;;;;;;;8.13;1.30;;;;;;;14.86;47.17;99892.56;5092502;28;20117;-61
2024/01/01 05:18:58;;;;;;;11.65;1.33;;;;;;;14.86;47.89;99892.56;5077432;28;20116;-61
2024/01/01 05:21:24;;;;;;;7.00;1.40;;;;;;;14.85;48.77;99896.28;5095393;28;20124;-61
2024/01/01 05:23:49;;;;;;;5.70;1.55;;;;;;;14.86;48.26;99897.94;5093210;28;20407;-61
2024/01/01 05:26:14;;;;;;;7.32;1.20;;;;;;;14.88;48.19;99909.41;5093105;28;20028;-62
2024/01/01 05:28:40;;;;;;;9.82;2.28;;;;;;;14.89;47.69;99920.00;5093285;28;20036;-61
2024/01/01 05:31:05;;;;;;;5.47;1.48;;;;;;;14.89;48.07;99908.38;5076360;28;20035;-61
2024/01/01 05:33:30;;;;;;;7.15;1.15;;;;;;;14.86;47.59;99924.91;5092954;28;20039;-62
2024/01/01 05:35:56;;;;;;;10.25;1.50;;;;;;;14.83;47.79;99926.09;5093307;28;20509;-61
2024/01/01 05:38:22;;;;;;;8.40;1.83;;;;;;;14.83;47.34;99925.25;5094075;28;20036;-61
2024/01/01 05:40:47;;;;;;;7.60;1.48;;;;;;;14.82;48.51;99923.59;5094429;28;20065;-61
2024/01/01 05:43:13;;;;;;;7.07;1.52;;;;;;;14.80;47.29;99925.63;5094579;28;20032;-62
2024/01/01 05:45:38;;;;;;;7.65;1.20;;;;;;;14.75;47.19;99933.41;5093194;28;20441;-61
2024/01/01 05:48:04;;;;;;;2.50;0.80;;;;;;;14.71;48.99;99932.09;5092891;28;20028;-62
2024/01/01 05:50:30;;;;;;;4.35;1.10;;;;;;;14.69;48.34;99936.81;5094299;28;20074;-61
2024/01/01 05:52:56;;;;;;;10.02;1.52;;;;;;;14.64;48.96;99942.75;5092942;28;20036;-61
2024/01/01 05:55:22;;;;;;;14.70;1.65;;;;;;;14.60;48.41;99949.50;5075870;28;20496;-61
2024/01/01 05:57:47;;;;;;;5.95;1.13;;;;;;;14.57;48.16;99944.47;5075890;28;20053;-61
2024/01/01 06:00:13;;;;;;;9.25;1.50;;;;;;;14.51;48.91;99946.03;5093051;28;20036;-61
2024/01/01 06:02:38;;;;;;;8.65;2.08;;;;;;;14.47;47.97;99936.59;5092797;28;20086;-61
2024/01/01 06:05:05;;;;;;;4.47;1.50;;;;;;;14.44;48.90;99947.72;5075499;28;20514;-61
2024/01/01 06:07:31;;;;;;;3.53;1.23;;;;;;;14.40;49.12;99940.19;5092354;28;20028;-62
2024/01/01 06:09:57;;;;;;;6.30;1.27;;;;;;;14.40;49.12;99951.81;5092327;28;20032;-61
2024/01/01 06:12:23;;;;;;;7.57;1.27;;;;;;;14.42;49.03;99955.16;5075564;28;20024;-61
2024/01/01 06:14:49;;;;;;;11.65;1.52;;;;;;;14.42;48.14;99959.69;5092443;28;20051;-61
2024/01/01 06:17:14;;;;;;;11.65;1.42;;;;;;;14.41;48.46;99958.00;5074674;28;20029;-61
2024/01/01 06:19:39;;;;;;;10.48;1.52;;;;;;;14.39;48.11;99951.97;5091891;28;20510;-61
2024/01/01 06:22:05;;;;;;;5.70;1.10;;;;;;;14.39;48.20;99960.88;5092029;28;20025;-61
2024/01/01 06:24:30;;;;;;;12.20;1.42;;;;;;;14.40;48.61;99967.97;5093506;28;20399;-61
2024/01/01 06:26:55;;;;;;;6.30;2.38;;;;;;;14.39;48.49;99974.38;5092277;28;20043;-61
2024/01/01 06:29:21;;;;;;;3.95;1.17;;;;;;;14.36;48.25;99981.94;5075134;28;20043;-62
2024/01/01 06:31:47;;;;;;;5.93;1.08;;;;;;;14.35;49.54;99980.28;5093490;28;20621;-61
2024/01/01 06:34:12;;;;;;;7.45;1.23;;;;;;;14.34;49.49;99974.06;5093426;28;20028;-61
2024/01/01 06:36:38;;;;;;;6.22;1.30;;;;;;;14.34;49.61;99976.75;5075421;28;20103;-61
2024/01/01 06:39:04;;;;;;;13.35;1.67;;;;;;;14.33;48.96;99996.59;5093357;28;20115;-62
2024/01/01 06:41:29;;;;;;;5.13;1.10;;;;;;;14.30;48.07;100005.00;5091895;28;20032;-61
2024/01/01 06:43:54;;;;;;;6.15;1.45;;;;;;;14.28;49.68;99996.25;5091928;28;20074;-61
2024/01/01 06:46:20;;;;;;;8.30;1.05;;;;;;;14.27;49.45;100009.88;5075102;28;20039;-62
2024/01/01 06:48:45;;;;;;;11.18;1.08;;;;;;;14.25;48.69;100017.31;5091773;28;20495;-61
2024/01/01 06:51:11;;;;;;;10.57;1.52;;;;;;;14.25;48.31;100010.06;5091814;28;20081;-61
2024/01/01 06:53:37;;;;;;;3.35;1.10;;;;;;;14.26;49.41;100019.84;5091961;28;20028;-61
2024/01/01 06:56:03;;;;;;;4.47;0.82;;;;;;;14.26;48.35;100017.16;5093296;28;20036;-61
2024/01/01 06:58:28;;;;;;;2.65;0.80;;;;;;;14.24;48.97;100016.47;5075166;28;20494;-62
2024/01/01 07:00:53;;;;;;;3.20;0.68;;;;;;;14.27;48.89;100026.91;5093145;28;20028;-61
2024/01/01 07:03:19;;;;;;;4.20;0.95;;;;;;;14.28;49.09;100023.19;5093256;28;20021;-62
2024/01/01 07:05:45;;;;;;;3.08;0.60;;;;;;;14.28;48.74;100033.13;5092158;28;20131;-61
2024/01/01 07:08:12;;;;;;;12.05;1.35;;;;;;;14.27;49.03;100045.75;5074401;28;20107;-61
2024/01/01 07:10:37;;;;;;;2.88;0.47;;;;;;;14.27;49.06;100036.81;5091709;28;20046;-61
2024/01/01 07:13:02;;;;;;;10.32;1.05;;;;;;;14.23;48.91;100040.88;5091828;28;20499;-61
2024/01/01 07:15:28;;;;;;;6.88;0.90;;;;;;;14.21;48.39;100043.75;5093159;28;20055;-62
2024/01/01 07:17:53;;;;;;;5.90;0.65;;;;;;;14.20;49.63;100052.84;5093355;28;20521;-65
2024/01/01 07:20:18;;;;;;;3.97;0.70;;;;;;;14.22;48.56;100049.97;5091612;28;20032;-66
2024/01/01 07:22:44;;;;;;;4.30;0.57;;;;;;;14.22;48.98;100056.22;5091598;28;20116;-65
2024/01/01 07:25:09;;;;;;;5.30;1.00;;;;;;;14.19;48.78;100061.94;5092791;28;20036;-65
2024/01/01 07:27:35;;;;;;;2.50;0.50;;;;;;;14.18;48.83;100065.63;5093919;28;20399;-66
2024/01/01 07:30:03;;;;;;;7.43;0.88;;;;;;;14.19;48.15;100066.47;5095640;28;20032;-65
2024/01/01 07:32:29;;;;;;;4.30;0.80;;;;;;;14.18;47.96;100065.63;5096592;28;20546;-65
2024/01/01 07:34:54;;;;;;;3.72;0.90;;;;;;;14.14;48.51;100069.69;5095684;28;20028;-65
2024/01/01 07:37:19;;;;;;;8.32;1.13;;;;;;;14.17;48.42;100079.28;5095527;28;20028;-65
2024/01/01 07:39:45;;;;;;;3.65;0.63;;;;;;;14.17;49.05;100088.22;5095329;28;20032;-65
2024/01/01 07:42:11;;;;;;;6.22;0.73;;;;;;;14.18;49.02;100092.56;5096569;28;20437;-65
2024/01/01 07:44:36;;;;;;;5.88;0.55;;;;;;;14.18;48.17;100092.56;5095415;28;20032;-65
2024/01/01 07:47:02;;;;;;;4.45;0.60;;;;;;;14.19;47.83;100096.09;5078428;28;20028;-66
2024/01/01 07:49:27;;;;;;;5.97;0.90;;;;;;;14.19;48.12;100093.41;5095442;28;20554;-65
2024/01/01 07:51:52;;;;;;;3.42;1.02;;;;;;;14.19;47.94;100110.41;5095314;28;20107;-65
2024/01/01 07:54:18;;;;;;;7.32;0.80;;;;;;;14.18;49.56;100097.94;5095280;28;20108;-65
2024/01/01 07:56:44;;;;;;;4.03;1.05;;;;;;;14.20;48.41;100112.13;5095188;28;20064;-65
2024/01/01 07:59:14;;;;;;;4.30;0.70;;;;;;;14.20;49.28;100116.66;5095169;28;20092;-65
2024/01/01 08:01:40;;;;;;;5.35;0.63;;;;;;;14.19;49.57;100117.66;5096323;28;20521;-65
2024/01/01 08:04:06;;;;;;;5.00;0.68;;;;;;;14.20;49.32;100117.50;5096077;28;20052;-65
2024/01/01 08:06:31;;;;;;;1.92;0.70;;;;;;;14.22;48.89;100118.16;5094929;28;20523;-65
2024/01/01 08:08:57;;;;;;;4.70;0.77;;;;;;;14.19;49.14;100110.41;5077627;28;20029;-65
2024/01/01 08:11:22;;;;;;;9.48;1.42;;;;;;;14.19;48.52;100110.41;5096285;28;20028;-65
2024/01/01 08:13:47;;;;;;;5.97;1.20;;;;;;;14.23;48.46;100111.78;5094982;28;20036;-65
2024/01/01 08:16:14;;;;;;;10.10;1.13;;;;;;;14.26;49.42;100122.22;5096286;28;20543;-65
2024/01/01 08:18:40;;;;;;;3.30;1.08;;;;;;;14.25;49.08;100120.53;5094830;28;20123;-65
2024/01/01 08:21:05;;;;;;;5.05;0.70;;;;;;;14.25;48.98;100123.22;5077773;28;20120;-65
2024/01/01 08:23:31;;;;;;;3.03;0.90;;;;;;;14.26;48.72;100126.75;5094456;28;20056;-65
2024/01/01 08:25:57;;;;;;;3.20;0.98;;;;;;;14.26;49.41;100133.00;5094698;28;20089;-61
2024/01/01 08:28:22;;;;;;;7.28;1.27;;;;;;;14.25;48.68;100134.00;5094467;28;20028;-62
2024/01/01 08:30:48;;;;;;;2.72;0.85;;;;;;;14.28;48.72;100140.88;5094596;28;20032;-61
2024/01/01 08:33:14;;;;;;;4.85;0.90;;;;;;;14.33;49.66;100144.78;5095611;28;20506;-61
2024/01/01 08:35:40;;;;;;;4.78;0.80;;;;;;;14.36;48.24;100141.75;5094617;28;20044;-62
2024/01/01 08:38:05;;;;;;;3.83;1.05;;;;;;;14.35;47.90;100150.84;5095689;28;20036;-61
2024/01/01 08:40:30;;;;;;;4.18;0.80;;;;;;;14.38;49.67;100153.19;5077066;28;20446;-61
2024/01/01 08:42:56;;;;;;;4.13;0.70;;;;;;;14.37;49.36;100156.91;5095658;28;20099;-61
2024/01/01 08:45:21;;;;;;;5.40;1.05;;;;;;;14.38;48.67;100158.59;5096337;28;20032;-60
2024/01/01 08:47:47;;;;;;;5.68;0.82;;;;;;;14.39;49.23;100165.66;5097695;28;20055;-61
2024/01/01 08:50:13;;;;;;;9.13;1.42;;;;;;;14.41;48.69;100162.78;5097056;28;20082;-61
2024/01/01 08:52:39;;;;;;;1.00;0.90;;;;;;;14.43;48.15;100167.00;5096591;28;20486;-63
2024/01/01 08:55:05;;;;;;;4.63;0.70;;;;;;;14.41;48.77;100168.19;5095685;28;20103;-61
2024/01/01 08:57:30;;;;;;;7.38;1.33;;;;;;;14.40;49.36;100178.13;5095463;28;20078;-62
2024/01/01 08:59:55;;;;;;;1.83;0.40;;;;;;;14.43;48.40;100171.56;5095100;28;20040;-60
2024/01/01 09:02:21;;;;;;;6.20;0.93;;;;;;;14.40;48.25;100178.13;5093971;28;20077;-61
2024/01/01 09:04:46;;;;;;;1.98;0.57;;;;;;;14.45;49.21;100183.84;5076531;28;20078;-62
2024/01/01 09:07:12;;;;;;;6.60;1.05;;;;;;;14.49;49.15;100193.25;5093647;28;20554;-61
2024/01/01 09:09:37;;;;;;;5.75;1.60;;;;;;;14.53;48.78;100189.22;5093814;28;20035;-61
2024/01/01 09:12:04;;;;;;;5.78;1.08;;;;;;;14.53;48.25;100186.53;5095201;28;20028;-61
2024/01/01 09:14:29;;;;;;;5.22;0.93;;;;;;;14.57;48.34;100201.34;5094781;28;20036;-61
2024/01/01 09:16:55;;;;;;;4.20;0.80;;;;;;;14.57;48.10;100204.03;5059412;28;20171;-61
2024/01/01 09:19:20;;;;;;;11.50;1.63;;;;;;;14.53;49.20;100194.63;5061712;28;20044;-61
2024/01/01 09:21:46;;;;;;;4.50;0.95;;;;;;;14.63;49.30;100199.00;5049528;28;20024;-61
2024/01/01 09:24:11;;;;;;;8.38;0.85;;;;;;;14.66;47.97;100210.25;5063376;28;20052;-61
2024/01/01 09:26:37;;;;;;;1.83;0.73;;;;;;;14.64;49.18;100216.84;5062650;28;20112;-61
2024/01/01 09:29:04;;;;;;;4.35;0.65;;;;;;;14.63;47.92;100221.38;5046991;28;20049;-61
2024/01/01 09:31:31;;;;;;;6.03;1.00;;;;;;;14.63;48.16;100226.78;5063623;28;20063;-61
2024/01/01 09:34:00;;;;;;;5.50;0.80;;;;;;;14.68;48.94;100245.16;5063774;28;20029;-61
2024/01/01 09:36:31;;;;;;;6.75;1.10;;;;;;;14.69;48.63;100246.81;5061173;28;20057;-61
2024/01/01 09:38:56;;;;;;;5.50;1.30;;;;;;;14.69;47.96;100244.13;5062654;28;20016;-61
2024/01/01 09:41:25;;;;;;;2.60;0.60;;;;;;;14.73;48.53;100253.56;5063123;28;20017;-62
2024/01/01 09:43:51;;;;;;;5.45;1.02;;;;;;;14.74;48.93;100249.88;5063178;28;20043;-62
2024/01/01 09:46:17;;;;;;;7.13;0.73;;;;;;;14.74;49.02;100249.88;5062645;28;20021;-61
2024/01/01 09:48:45;;;;;;;3.58;0.65;;;;;;;14.73;48.57;100269.75;5061286;28;20488;-62
2024/01/01 09:51:10;;;;;;;4.93;0.85;;;;;;;14.75;49.31;100265.00;5061819;28;20016;-62
2024/01/01 09:53:36;;;;;;;4.18;0.90;;;;;;;14.81;47.82;100259.78;5062095;28;20020;-62
2024/01/01 09:56:02;;;;;;;2.17;0.85;;;;;;;14.90;47.63;100266.03;5048088;28;20020;-62
2024/01/01 09:58:27;;;;;;;5.45;1.10;;;;;;;14.98;47.72;100263.31;5061068;28;20508;-61
2024/01/01 10:00:52;;;;;;;2.08;0.70;;;;;;;15.03;48.16;100266.31;5062676;28;20032;-61
2024/01/01 10:03:18;;;;;;;3.75;0.77;;;;;;;15.06;48.88;100269.53;5062390;28;20033;-61
2024/01/01 10:05:48;;;;;;;8.70;1.08;;;;;;;15.08;47.97;100274.75;5059418;28;20054;-62
2024/01/01 10:08:15;;;;;;;5.10;0.98;;;;;;;15.06;48.60;100283.03;5062920;28;20032;-61
2024/01/01 10:10:41;;;;;;;4.22;0.82;;;;;;;15.07;48.53;100289.25;5044641;28;20029;-63
2024/01/01 10:13:11;;;;;;;4.07;0.73;;;;;;;15.07;47.63;100290.06;5063794;28;20044;-61
2024/01/01 10:15:41;;;;;;;5.93;0.77;;;;;;;15.02;48.26;100287.06;5061630;28;20028;-62
2024/01/01 10:18:10;;;;;;;2.83;0.47;;;;;;;15.01;48.03;100293.47;5060571;28;20040;-61
2024/01/01 10:20:37;;;;;;;5.00;0.65;;;;;;;15.05;48.08;100305.59;5062942;28;20028;-62
2024/01/01 10:23:26;;;;;;;5.68;0.75;;;;;;;15.09;48.02;100298.00;5063671;28;20158;-62
2024/01/01 10:26:03;;;;;;;4.25;0.70;;;;;;;15.07;47.33;100305.44;5043177;28;20107;-63
2024/01/01 10:28:29;;;;;;;3.05;0.77;;;;;;;15.05;47.77;100291.25;5063704;28;20066;-62
2024/01/01 10:30:55;;;;;;;5.97;0.80;;;;;;;15.03;48.70;100310.34;5045504;28;20037;-62
2024/01/01 10:33:21;;;;;;;6.35;1.13;;;;;;;15.03;47.38;100309.47;5044009;28;20033;-61
2024/01/01 10:35:47;;;;;;;2.97;0.95;;;;;;;15.00;48.60;100299.03;5045531;28;20032;-61
2024/01/01 10:38:13;;;;;;;3.63;0.50;;;;;;;15.00;47.74;100304.44;5043574;28;20032;-61
2024/01/01 10:40:38;;;;;;;7.43;0.40;;;;;;;15.00;48.27;100296.34;5051919;28;20487;-61
2024/01/01 10:43:04;;;;;;;6.15;0.88;;;;;;;15.03;47.73;100304.94;5051717;28;20040;-62
2024/01/01 10:45:30;;;;;;;5.07;0.98;;;;;;;15.03;47.83;100294.16;5051952;28;20103;-62
2024/01/01 10:47:58;;;;;;;7.07;0.73;;;;;;;15.13;48.45;100302.06;5035212;28;20489;-63
2024/01/01 10:50:31;;;;;;;8.05;2.20;;;;;;;15.18;48.45;100294.28;5035162;28;20083;-62
2024/01/01 10:53:02;;;;;;;5.15;0.93;;;;;;;15.18;47.66;100304.25;5051675;28;20075;-61
2024/01/01 10:55:46;;;;;;;10.30;1.23;;;;;;;15.14;47.64;100318.06;5052995;28;20064;-60
2024/01/01 10:58:23;;;;;;;4.10;0.70;;;;;;;15.18;47.33;100310.47;5053013;28;20033;-61
2024/01/01 11:00:59;;;;;;;6.07;0.95;;;;;;;15.16;47.63;100318.72;5051643;28;20451;-61
2024/01/01 11:03:24;;;;;;;3.15;0.68;;;;;;;15.22;46.92;100324.44;5050641;28;20033;-61
2024/01/01 11:05:50;;;;;;;4.75;1.02;;;;;;;15.26;47.47;100325.81;5051356;28;20119;-61
2024/01/01 11:08:26;;;;;;;7.00;0.95;;;;;;;15.28;47.88;100324.63;5052995;28;20049;-62
2024/01/01 11:10:52;;;;;;;5.97;1.52;;;;;;;15.26;47.92;100321.25;5051617;28;20480;-61
2024/01/01 11:13:26;;;;;;;5.97;1.45;;;;;;;15.28;47.76;100321.91;5051201;28;20108;-61
2024/01/01 11:16:03;;;;;;;10.32;1.50;;;;;;;15.29;47.11;100326.31;5052725;28;20040;-61
2024/01/01 11:18:33;;;;;;;5.80;1.02;;;;;;;15.32;47.20;100333.22;5052603;28;20116;-61
2024/01/01 11:21:01;;;;;;;9.15;1.33;;;;;;;15.31;46.91;100340.47;5051303;28;20030;-61
2024/01/01 11:23:42;;;;;;;6.35;2.05;;;;;;;15.29;48.20;100342.50;5052749;28;20032;-61